This is the latest recevied weather packets stored in our database for station/object N2UGS-WX. If no packets are shown the sender has not sent any weather packets the latest 10 day(s).
| Time | Temp. | Humidity | Pressure | Rain* | Wind** | Luminosity | Snow |
|---|---|---|---|---|---|---|---|
| 1777608006 | 5.56° C | 96% | 1013.9 hPa | 0 mm | - | - | - |
| 1777607102 | 5.56° C | 95% | 1013.9 hPa | 0 mm | - | - | - |
| 1777606202 | 6.11° C | 95% | 1013.9 hPa | 0 mm | - | - | - |
| 1777605303 | 6.11° C | 95% | 1013.9 hPa | 0 mm | - | - | - |
| 1777604402 | 6.11° C | 95% | 1013.9 hPa | 0 mm | - | - | - |
| 1777602842 | 6.11° C | 94% | 1013.9 hPa | 0 mm | - | - | - |
| 1777601942 | 6.11° C | 94% | 1013.9 hPa | 0 mm | - | - | - |
| 1777601102 | 6.11° C | 94% | 1013.9 hPa | 0 mm | - | - | - |
| 1777600142 | 6.11° C | 93% | 1013.5 hPa | 0 mm | - | - | - |
| 1777599542 | 6.11° C | 93% | 1013.5 hPa | 0 mm | - | - | - |
| 1777598702 | 6.11° C | 92% | 1013.5 hPa | 0 mm | - | - | - |
| 1777597803 | 6.11° C | 92% | 1013.5 hPa | 0 mm | - | - | - |
| 1777596902 | 6.11° C | 91% | 1013.2 hPa | 0 mm | - | - | - |
| 1777596003 | 5.56° C | 91% | 1013.5 hPa | 0 mm | - | - | - |
| 1777595102 | 5.56° C | 90% | 1013.2 hPa | 0.51 mm | - | - | - |
| 1777594202 | 6.11° C | 89% | 1013.2 hPa | 0.51 mm | - | - | - |
| 1777593302 | 5.56° C | 89% | 1013.2 hPa | 0.51 mm | - | - | - |
| 1777592702 | 6.11° C | 88% | 1013.5 hPa | 0.51 mm | - | - | - |
| 1777591803 | 7.22° C | 78% | 1013.2 hPa | 0 mm | - | - | - |
| 1777590902 | 7.78° C | 76% | 1012.9 hPa | 0 mm | - | - | - |
| 1777590003 | 8.33° C | 73% | 1012.9 hPa | 0 mm | - | - | - |
| 1777589102 | 8.89° C | 73% | 1012.9 hPa | 0 mm | - | - | - |
| 1777588203 | 9.44° C | 71% | 1012.9 hPa | 0 mm | - | - | - |
| 1777587302 | 8.89° C | 73% | 1012.5 hPa | 0 mm | - | - | - |
| 1777586402 | 9.44° C | 71% | 1012.5 hPa | 0 mm | - | - | - |
* Rain latest hour (hover to see other rain measurements)
** Current wind speed in m/s (hover to see current wind gust speed)